Time;durP1;ratioP1;P1;durP2;ratioP2;P2;SDS_P1;SDS_P2;PMS_P1;PMS_P2;Temp;Humidity;BMP_temperature;BMP_pressure;BME280_temperature;BME280_humidity;BME280_pressure;Samples;Min_cycle;Max_cycle;Signal;HPM_P1;HPM_P2
2023/04/20 00:00:43;;;;;;;11.57;6.97;;;8.70;64.60;;;;;;5075261;28;20996;-63
2023/04/20 00:03:17;;;;;;;17.80;7.90;;;8.70;64.70;;;;;;5079323;28;20490;-64
2023/04/20 00:05:59;;;;;;;13.77;6.80;;;8.70;64.70;;;;;;5085942;28;20482;-62
2023/04/20 00:08:40;;;;;;;9.50;5.95;;;8.80;64.90;;;;;;5083142;28;20279;-62
2023/04/20 00:11:16;;;;;;;9.23;5.90;;;8.80;64.90;;;;;;5074195;28;20229;-62
2023/04/20 00:13:49;;;;;;;11.43;6.00;;;8.90;65.00;;;;;;5070162;28;20532;-62
2023/04/20 00:16:37;;;;;;;12.20;6.13;;;8.90;65.00;;;;;;5081512;28;20445;-62
2023/04/20 00:19:10;;;;;;;9.47;5.73;;;9.00;64.90;;;;;;5089746;28;20846;-62
2023/04/20 00:21:51;;;;;;;10.87;6.97;;;9.00;64.90;;;;;;5090161;28;21042;-65
2023/04/20 00:24:25;;;;;;;11.70;6.80;;;9.00;64.80;;;;;;5088694;28;20540;-64
2023/04/20 00:27:07;;;;;;;10.30;5.83;;;9.00;64.80;;;;;;5087336;28;20511;-62
2023/04/20 00:29:41;;;;;;;10.20;6.23;;;9.10;64.70;;;;;;5082551;28;20550;-63
2023/04/20 00:32:29;;;;;;;11.60;5.97;;;9.10;64.80;;;;;;5085145;28;20491;-64
2023/04/20 00:35:02;;;;;;;12.40;6.40;;;9.10;64.80;;;;;;5087626;28;20482;-62
2023/04/20 00:37:39;;;;;;;11.77;6.23;;;9.00;64.80;;;;;;5088159;28;20923;-62
2023/04/20 00:40:20;;;;;;;14.87;7.60;;;9.00;64.90;;;;;;5083247;28;20456;-64
2023/04/20 00:42:50;;;;;;;11.33;5.90;;;8.90;64.90;;;;;;5068004;28;20474;-64
2023/04/20 00:45:28;;;;;;;8.83;5.60;;;8.90;64.90;;;;;;5073341;28;20471;-62
2023/04/20 00:48:11;;;;;;;9.83;5.20;;;8.90;64.90;;;;;;5069763;28;20480;-62
2023/04/20 00:50:44;;;;;;;10.47;5.70;;;8.90;64.90;;;;;;5087699;28;20805;-63
2023/04/20 00:53:25;;;;;;;9.30;5.90;;;8.80;64.90;;;;;;5070519;28;21003;-62
2023/04/20 00:55:57;;;;;;;12.30;5.77;;;8.70;64.90;;;;;;5089167;28;20919;-63
2023/04/20 00:58:43;;;;;;;12.43;6.30;;;8.70;65.10;;;;;;5086581;28;20537;-63
2023/04/20 01:01:16;;;;;;;9.97;6.13;;;8.60;65.20;;;;;;5086794;28;20578;-62
2023/04/20 01:03:59;;;;;;;11.93;6.67;;;8.60;65.40;;;;;;5087452;28;20456;-62
2023/04/20 01:06:30;;;;;;;12.77;6.80;;;8.70;65.50;;;;;;5088867;28;20735;-63
2023/04/20 01:09:09;;;;;;;12.03;6.40;;;8.70;65.60;;;;;;5086923;28;20861;-63
2023/04/20 01:11:46;;;;;;;9.67;5.50;;;8.70;65.60;;;;;;5069953;28;20475;-63
2023/04/20 01:14:22;;;;;;;11.27;5.90;;;8.70;65.70;;;;;;5084194;28;20555;-63
2023/04/20 01:16:55;;;;;;;11.30;6.77;;;8.70;65.90;;;;;;5090747;28;20460;-63
2023/04/20 01:19:30;;;;;;;10.57;6.38;;;8.70;66.00;;;;;;5087139;28;20487;-63
2023/04/20 01:22:06;;;;;;;17.40;7.13;;;8.70;66.10;;;;;;5086802;28;20260;-63
2023/04/20 01:24:48;;;;;;;13.38;8.18;;;8.80;66.20;;;;;;5087850;28;20558;-65
2023/04/20 01:27:23;;;;;;;8.80;6.00;;;8.80;66.30;;;;;;5084465;28;20246;-63
2023/04/20 01:29:56;;;;;;;13.10;6.03;;;8.80;66.30;;;;;;5081628;28;20875;-65
2023/04/20 01:32:34;;;;;;;10.40;6.97;;;8.80;66.30;;;;;;5083242;28;20480;-64
2023/04/20 01:35:11;;;;;;;11.37;7.27;;;8.90;66.40;;;;;;5082374;28;20508;-63
2023/04/20 01:37:42;;;;;;;10.10;7.13;;;8.90;66.40;;;;;;5086677;28;21026;-62
2023/04/20 01:40:15;;;;;;;11.40;5.80;;;8.80;66.50;;;;;;5083005;28;20468;-62
2023/04/20 01:42:51;;;;;;;8.40;5.80;;;8.80;66.60;;;;;;5080514;28;20451;-64
2023/04/20 01:45:26;;;;;;;9.93;6.50;;;8.80;66.70;;;;;;5079970;28;20545;-63
2023/04/20 01:48:03;;;;;;;10.30;6.37;;;8.80;66.80;;;;;;5086381;28;21025;-62
2023/04/20 01:50:37;;;;;;;10.63;6.30;;;8.80;66.90;;;;;;5084417;28;20569;-62
2023/04/20 01:53:12;;;;;;;16.00;7.80;;;8.80;67.00;;;;;;5081342;28;20561;-64
2023/04/20 01:55:58;;;;;;;12.33;7.03;;;8.80;67.00;;;;;;5081800;28;20457;-64
2023/04/20 01:58:28;;;;;;;12.43;7.90;;;8.80;67.10;;;;;;5065405;28;20469;-63
2023/04/20 02:01:04;;;;;;;15.20;9.00;;;8.80;67.20;;;;;;5066182;28;20473;-63
2023/04/20 02:03:36;;;;;;;14.13;8.33;;;8.90;67.20;;;;;;5082959;28;20461;-63
2023/04/20 02:06:31;;;;;;;16.27;8.60;;;8.90;67.00;;;;;;5086393;28;20467;-63
2023/04/20 02:09:11;;;;;;;16.40;8.13;;;8.90;67.00;;;;;;5070613;28;20468;-63
2023/04/20 02:11:57;;;;;;;15.87;7.70;;;8.90;67.00;;;;;;5082643;28;20462;-63
2023/04/20 02:14:38;;;;;;;14.47;10.00;;;8.90;67.10;;;;;;5079848;28;20472;-63
2023/04/20 02:17:12;;;;;;;16.10;8.40;;;9.00;67.00;;;;;;5083735;28;20468;-63
2023/04/20 02:19:57;;;;;;;15.63;8.20;;;9.00;67.10;;;;;;5081475;28;20491;-63
2023/04/20 02:22:33;;;;;;;13.43;7.70;;;9.00;67.00;;;;;;5067393;28;20765;-63
2023/04/20 02:25:18;;;;;;;21.13;10.30;;;9.00;66.90;;;;;;5087739;28;20533;-63
2023/04/20 02:28:03;;;;;;;13.97;7.23;;;9.00;67.00;;;;;;5084642;28;21141;-63
2023/04/20 02:30:35;;;;;;;12.27;7.33;;;8.90;67.00;;;;;;5080617;28;20465;-63
2023/04/20 02:33:05;;;;;;;18.90;10.83;;;9.00;67.00;;;;;;5084268;28;20991;-63
2023/04/20 02:35:48;;;;;;;19.47;11.97;;;8.90;66.90;;;;;;5082477;28;20855;-63
2023/04/20 02:38:19;;;;;;;13.00;8.07;;;8.90;66.90;;;;;;5082700;28;20521;-63
2023/04/20 02:40:50;;;;;;;14.07;7.13;;;8.90;66.90;;;;;;5076865;28;21024;-63
2023/04/20 02:43:27;;;;;;;12.63;6.83;;;8.90;66.90;;;;;;5061528;28;20549;-63
2023/04/20 02:46:08;;;;;;;11.83;7.53;;;8.90;66.80;;;;;;5082991;28;20525;-62
2023/04/20 02:48:50;;;;;;;11.40;7.27;;;8.90;66.80;;;;;;5083757;28;20482;-63
2023/04/20 02:51:22;;;;;;;12.30;7.47;;;8.90;66.80;;;;;;5066218;28;20456;-63
2023/04/20 02:53:52;;;;;;;14.37;8.20;;;8.90;66.80;;;;;;5081106;28;20495;-62
2023/04/20 02:56:39;;;;;;;19.20;8.90;;;8.90;66.90;;;;;;5080730;28;20493;-63
2023/04/20 02:59:19;;;;;;;13.30;7.80;;;8.90;67.00;;;;;;5078748;28;20466;-63
2023/04/20 03:02:09;;;;;;;11.50;8.23;;;8.90;66.90;;;;;;5069566;28;20863;-64
2023/04/20 03:04:41;;;;;;;15.30;8.60;;;8.90;66.90;;;;;;5064837;28;21069;-63
2023/04/20 03:07:23;;;;;;;16.13;8.15;;;8.90;66.90;;;;;;5084688;28;20664;-63
2023/04/20 03:09:56;;;;;;;17.33;9.07;;;8.90;67.00;;;;;;5086149;28;20233;-64
2023/04/20 03:12:50;;;;;;;11.67;8.50;;;8.90;67.10;;;;;;5062065;28;20670;-63
2023/04/20 03:15:35;;;;;;;16.83;9.50;;;9.00;67.10;;;;;;5081914;28;20473;-64
2023/04/20 03:21:22;;;;;;;17.90;8.10;;;9.00;67.10;;;;;;5079695;28;20757;-64
2023/04/20 03:23:57;;;;;;;15.97;8.03;;;9.00;67.10;;;;;;5083562;28;20569;-63
2023/04/20 03:26:40;;;;;;;12.40;7.70;;;9.00;67.10;;;;;;5080899;28;20457;-63
2023/04/20 03:29:17;;;;;;;12.83;8.00;;;9.00;67.10;;;;;;5079435;28;20548;-63
2023/04/20 03:31:57;;;;;;;14.00;7.63;;;8.90;67.10;;;;;;5065127;28;20836;-63
2023/04/20 03:34:28;;;;;;;12.80;7.87;;;8.90;67.30;;;;;;5085143;28;20467;-63
2023/04/20 03:37:12;;;;;;;15.80;8.13;;;8.80;67.30;;;;;;5083228;28;20556;-62
2023/04/20 03:39:55;;;;;;;14.67;8.33;;;8.90;67.40;;;;;;5065801;28;20457;-62
2023/04/20 03:42:29;;;;;;;10.10;7.33;;;8.90;67.40;;;;;;5081657;28;20514;-62
2023/04/20 03:45:09;;;;;;;11.73;7.23;;;8.90;67.30;;;;;;5079835;28;20879;-63
2023/04/20 03:47:43;;;;;;;13.20;8.30;;;8.90;67.30;;;;;;5082394;28;20481;-63
2023/04/20 03:50:16;;;;;;;15.37;9.03;;;8.80;67.40;;;;;;5062939;28;20456;-64
2023/04/20 03:52:51;;;;;;;18.43;10.53;;;8.80;67.40;;;;;;5080314;28;20461;-63
2023/04/20 03:55:23;;;;;;;17.93;9.33;;;8.80;67.40;;;;;;5068617;28;20471;-63
2023/04/20 03:58:07;;;;;;;15.80;9.17;;;8.80;67.50;;;;;;5070818;28;20452;-63
2023/04/20 04:01:00;;;;;;;13.00;8.80;;;8.80;67.50;;;;;;5082350;28;20548;-63
2023/04/20 04:03:47;;;;;;;17.50;8.77;;;8.80;67.60;;;;;;5080457;28;20793;-62
2023/04/20 04:06:21;;;;;;;15.20;10.20;;;8.70;67.60;;;;;;5077949;28;20467;-63
2023/04/20 04:08:53;;;;;;;14.23;8.57;;;8.70;67.70;;;;;;5061350;28;20472;-63
2023/04/20 04:11:24;;;;;;;10.87;7.80;;;8.70;67.80;;;;;;5082220;28;20468;-63
2023/04/20 04:14:05;;;;;;;13.63;8.77;;;8.60;67.80;;;;;;5082040;28;20460;-64
2023/04/20 04:16:42;;;;;;;14.48;8.38;;;8.60;67.90;;;;;;5083581;28;20494;-63
2023/04/20 04:19:17;;;;;;;16.27;10.50;;;8.50;67.90;;;;;;5064462;28;20203;-63
2023/04/20 04:21:49;;;;;;;15.07;9.10;;;8.50;68.10;;;;;;5061508;28;20532;-63
2023/04/20 04:24:22;;;;;;;15.10;9.05;;;8.50;68.20;;;;;;5077828;28;20464;-63
2023/04/20 04:27:10;;;;;;;15.03;9.13;;;8.50;68.30;;;;;;5080713;28;20204;-63
2023/04/20 04:29:49;;;;;;;14.63;8.77;;;8.50;68.30;;;;;;5081679;28;20468;-63
2023/04/20 04:32:24;;;;;;;13.60;8.43;;;8.50;68.40;;;;;;5061157;28;20517;-63
2023/04/20 04:34:59;;;;;;;14.83;9.30;;;8.50;68.50;;;;;;5077427;28;20453;-63
2023/04/20 04:37:35;;;;;;;16.10;9.87;;;8.50;68.60;;;;;;5062606;28;20467;-62
2023/04/20 04:40:13;;;;;;;19.57;12.20;;;8.60;68.70;;;;;;5081024;28;20761;-63
2023/04/20 04:42:54;;;;;;;21.03;11.90;;;8.60;68.70;;;;;;5066843;28;20555;-63
2023/04/20 04:45:25;;;;;;;13.63;9.40;;;8.60;68.70;;;;;;5066182;28;20782;-62
2023/04/20 04:47:59;;;;;;;21.93;12.10;;;8.70;68.70;;;;;;5077893;28;20458;-63
2023/04/20 04:50:38;;;;;;;32.67;16.80;;;8.70;68.70;;;;;;5076576;28;20477;-64
2023/04/20 04:53:11;;;;;;;22.43;13.37;;;8.70;68.80;;;;;;5078100;28;20472;-63
2023/04/20 04:55:42;;;;;;;25.63;12.77;;;8.70;68.80;;;;;;5082764;28;20459;-63
2023/04/20 04:58:18;;;;;;;26.03;14.83;;;8.70;68.80;;;;;;5078214;28;20445;-63
2023/04/20 05:00:48;;;;;;;22.37;13.10;;;8.70;68.80;;;;;;5079267;28;20490;-63
2023/04/20 05:03:20;;;;;;;28.50;15.23;;;8.70;68.80;;;;;;5079091;28;21183;-63
2023/04/20 05:06:13;;;;;;;19.80;12.00;;;8.80;69.50;;;;;;5083033;28;20464;-64
2023/04/20 05:08:46;;;;;;;15.30;8.93;;;9.30;70.10;;;;;;5082006;28;20575;-63
2023/04/20 05:11:29;;;;;;;19.07;9.37;;;10.10;69.80;;;;;;5084658;28;20467;-63
2023/04/20 05:14:03;;;;;;;20.00;9.80;;;11.00;69.20;;;;;;5083945;28;21049;-63
2023/04/20 05:16:34;;;;;;;13.10;9.03;;;11.90;68.00;;;;;;5082860;28;20453;-63
2023/04/20 05:19:07;;;;;;;16.47;9.87;;;12.60;66.90;;;;;;5080011;28;21226;-63
2023/04/20 05:21:45;;;;;;;14.53;10.10;;;13.10;65.90;;;;;;5084345;28;20449;-64
2023/04/20 05:24:19;;;;;;;17.50;8.93;;;13.70;65.10;;;;;;5080371;28;20794;-63
2023/04/20 05:26:51;;;;;;;15.00;9.20;;;14.10;64.50;;;;;;5085630;28;20454;-63
2023/04/20 05:29:22;;;;;;;17.83;9.47;;;14.50;64.20;;;;;;5080798;28;20512;-62
2023/04/20 05:31:59;;;;;;;17.87;10.37;;;14.90;63.60;;;;;;5080957;28;20514;-63
2023/04/20 05:34:36;;;;;;;15.87;10.70;;;15.30;62.90;;;;;;5069016;28;20460;-64
2023/04/20 05:37:11;;;;;;;14.73;9.30;;;14.80;60.00;;;;;;5080623;28;20568;-63
2023/04/20 05:39:49;;;;;;;14.33;9.43;;;13.70;61.20;;;;;;5084233;28;20586;-65
2023/04/20 05:42:22;;;;;;;17.83;11.27;;;13.70;62.90;;;;;;5082111;28;20790;-65
2023/04/20 05:44:59;;;;;;;18.37;10.37;;;14.00;63.20;;;;;;5082135;28;20470;-62
2023/04/20 05:47:35;;;;;;;15.00;9.40;;;14.50;61.70;;;;;;5079320;28;20505;-62
2023/04/20 05:50:15;;;;;;;13.00;9.83;;;14.00;60.10;;;;;;5079535;28;20981;-62
2023/04/20 05:52:54;;;;;;;14.47;10.20;;;13.00;60.00;;;;;;5080591;28;20457;-63
2023/04/20 05:55:25;;;;;;;16.47;10.80;;;12.10;60.80;;;;;;5083215;28;20463;-64
2023/04/20 05:58:05;;;;;;;15.27;9.73;;;11.40;61.50;;;;;;5082410;28;20465;-62
2023/04/20 06:00:35;;;;;;;13.40;9.27;;;10.90;62.10;;;;;;5076798;28;20516;-63
2023/04/20 06:03:14;;;;;;;13.70;9.43;;;10.50;62.80;;;;;;5078082;28;20909;-63
2023/04/20 06:05:53;;;;;;;13.13;9.60;;;10.10;63.30;;;;;;5077445;28;20485;-63
2023/04/20 06:08:32;;;;;;;17.50;10.90;;;9.80;63.80;;;;;;5083630;28;20852;-64
2023/04/20 06:11:05;;;;;;;15.70;10.83;;;9.60;64.20;;;;;;5082143;28;20469;-63
2023/04/20 06:13:37;;;;;;;16.20;11.70;;;9.40;64.50;;;;;;5079791;28;20449;-63
2023/04/20 06:16:17;;;;;;;16.53;11.67;;;9.20;64.90;;;;;;5070654;28;20530;-63
2023/04/20 06:18:53;;;;;;;20.40;12.60;;;9.10;65.40;;;;;;5077728;28;20446;-63
2023/04/20 06:21:27;;;;;;;21.20;12.17;;;8.90;66.00;;;;;;5079648;28;20525;-63
2023/04/20 06:24:02;;;;;;;18.53;12.67;;;8.90;66.10;;;;;;5081319;28;20551;-63
2023/04/20 06:26:35;;;;;;;16.10;10.90;;;8.90;66.60;;;;;;5084172;28;21184;-63
2023/04/20 06:29:06;;;;;;;16.60;10.47;;;8.90;66.70;;;;;;5081307;28;20480;-63
2023/04/20 06:31:37;;;;;;;17.80;11.23;;;8.90;66.80;;;;;;5080605;28;20476;-63
2023/04/20 06:34:07;;;;;;;15.80;11.57;;;8.90;67.00;;;;;;5082747;28;20631;-63
2023/04/20 06:36:39;;;;;;;15.90;10.57;;;9.00;67.10;;;;;;5082404;28;21022;-63
2023/04/20 06:39:20;;;;;;;16.80;11.10;;;9.00;67.20;;;;;;5079599;28;20453;-63
2023/04/20 06:41:53;;;;;;;19.07;9.83;;;9.00;67.40;;;;;;5079998;28;20913;-63
2023/04/20 06:44:33;;;;;;;18.90;11.60;;;8.90;67.70;;;;;;5082508;28;20459;-63
2023/04/20 06:47:02;;;;;;;18.87;12.17;;;8.90;67.70;;;;;;5078983;28;20465;-64
2023/04/20 06:49:42;;;;;;;17.20;11.53;;;9.00;67.90;;;;;;5078364;28;20810;-64
2023/04/20 06:52:21;;;;;;;17.60;12.80;;;9.00;68.10;;;;;;5080136;28;20453;-64
2023/04/20 06:55:14;;;;;;;18.37;11.20;;;9.00;68.20;;;;;;5078274;28;20458;-63
2023/04/20 06:57:48;;;;;;;15.10;9.87;;;9.00;68.60;;;;;;5066892;28;20935;-64
2023/04/20 07:00:29;;;;;;;20.70;10.27;;;9.00;68.40;;;;;;5084148;28;20958;-63
2023/04/20 07:03:02;;;;;;;15.83;11.60;;;9.00;68.60;;;;;;5082766;28;20553;-63
2023/04/20 07:05:33;;;;;;;16.43;10.37;;;9.00;68.80;;;;;;5080253;28;20464;-63
2023/04/20 07:08:03;;;;;;;14.23;9.70;;;9.10;68.80;;;;;;5078717;28;20783;-63
2023/04/20 07:10:48;;;;;;;17.30;11.20;;;9.10;68.80;;;;;;5081905;28;20473;-63
2023/04/20 07:13:20;;;;;;;14.73;11.03;;;9.20;68.80;;;;;;5081874;28;20856;-63
2023/04/20 07:16:03;;;;;;;16.73;10.77;;;9.10;68.80;;;;;;5080255;28;20547;-63
2023/04/20 07:18:34;;;;;;;30.13;13.07;;;9.10;68.90;;;;;;5084399;28;20480;-63
2023/04/20 07:21:08;;;;;;;23.63;15.00;;;9.20;69.00;;;;;;5082554;28;20445;-63
2023/04/20 07:23:40;;;;;;;19.83;11.63;;;9.20;69.00;;;;;;5080969;28;20457;-63
2023/04/20 07:26:20;;;;;;;20.77;12.53;;;9.30;69.10;;;;;;5079912;28;20460;-63
2023/04/20 07:29:00;;;;;;;15.33;11.27;;;9.30;69.10;;;;;;5081713;28;20475;-63
2023/04/20 07:31:32;;;;;;;20.80;13.33;;;9.30;69.20;;;;;;5081867;28;20874;-63
2023/04/20 07:34:06;;;;;;;24.40;13.70;;;9.30;69.30;;;;;;5082729;28;20468;-63
2023/04/20 07:36:38;;;;;;;27.00;14.60;;;9.30;69.40;;;;;;5081434;28;20515;-64
2023/04/20 07:39:06;;;;;;;17.50;13.00;;;9.40;69.40;;;;;;5079091;28;20518;-63
2023/04/20 07:41:50;;;;;;;17.53;11.10;;;9.40;69.60;;;;;;5079390;28;20519;-63
2023/04/20 07:44:26;;;;;;;17.67;10.80;;;9.50;69.40;;;;;;5079702;28;20457;-63
2023/04/20 07:47:05;;;;;;;16.93;12.70;;;9.50;69.50;;;;;;5076219;28;20448;-63
2023/04/20 07:49:39;;;;;;;15.87;10.90;;;9.60;69.50;;;;;;5079778;28;20444;-63
2023/04/20 07:52:10;;;;;;;15.60;10.87;;;9.60;69.50;;;;;;5074093;28;20916;-64
2023/04/20 07:54:46;;;;;;;17.10;10.73;;;9.60;69.50;;;;;;5076930;28;20536;-63
2023/04/20 07:57:24;;;;;;;18.97;11.73;;;9.60;69.50;;;;;;5078355;28;20461;-63
2023/04/20 07:59:59;;;;;;;13.80;10.50;;;9.70;69.50;;;;;;5076861;28;20999;-63
2023/04/20 08:02:53;;;;;;;18.87;11.97;;;9.70;69.40;;;;;;5080110;28;20829;-63
2023/04/20 08:05:30;;;;;;;16.50;11.87;;;9.70;69.40;;;;;;5078505;28;20952;-63
2023/04/20 08:08:12;;;;;;;16.10;11.13;;;9.70;69.50;;;;;;5077165;28;20461;-63
2023/04/20 08:10:49;;;;;;;16.47;12.27;;;9.80;69.60;;;;;;5071205;28;20596;-63
2023/04/20 08:13:22;;;;;;;16.47;12.03;;;9.90;69.50;;;;;;5076457;28;20731;-64
2023/04/20 08:15:53;;;;;;;14.40;11.67;;;9.80;69.50;;;;;;5081678;28;20519;-63
2023/04/20 08:18:26;;;;;;;14.00;11.00;;;9.90;69.60;;;;;;5079501;28;20800;-63
2023/04/20 08:21:03;;;;;;;15.43;11.20;;;10.00;69.60;;;;;;5076603;28;20907;-63
2023/04/20 08:23:35;;;;;;;21.30;14.50;;;10.00;69.30;;;;;;5077930;28;20470;-63
2023/04/20 08:26:09;;;;;;;17.70;11.30;;;10.00;69.30;;;;;;5076558;28;20453;-63
2023/04/20 08:28:46;;;;;;;14.73;10.83;;;10.00;69.30;;;;;;5081539;28;20446;-64
2023/04/20 08:31:19;;;;;;;16.07;10.60;;;10.00;69.30;;;;;;5084173;28;20946;-63
2023/04/20 08:34:00;;;;;;;17.50;12.20;;;10.10;69.20;;;;;;5080016;28;20460;-63
2023/04/20 08:36:39;;;;;;;16.53;11.00;;;10.10;69.20;;;;;;5081174;28;20495;-63
2023/04/20 08:39:14;;;;;;;15.63;9.90;;;10.10;69.10;;;;;;5080453;28;21137;-63
2023/04/20 08:41:45;;;;;;;18.20;11.10;;;10.20;69.00;;;;;;5084488;28;20519;-63
2023/04/20 08:44:18;;;;;;;21.60;11.90;;;10.20;68.80;;;;;;5083387;28;20595;-63
2023/04/20 08:46:58;;;;;;;16.00;10.80;;;10.20;68.80;;;;;;5086248;28;20511;-63
2023/04/20 08:49:38;;;;;;;15.60;10.90;;;10.20;68.90;;;;;;5083340;28;20945;-64
2023/04/20 08:52:14;;;;;;;17.67;11.50;;;10.20;68.90;;;;;;5079511;28;20985;-63
2023/04/20 08:54:52;;;;;;;18.17;11.60;;;10.30;69.00;;;;;;5085979;28;20852;-63
2023/04/20 08:57:27;;;;;;;16.30;11.67;;;10.30;69.10;;;;;;5082156;28;20462;-63
2023/04/20 08:59:59;;;;;;;18.03;11.17;;;10.40;68.80;;;;;;5083345;28;21020;-63
2023/04/20 09:02:33;;;;;;;17.47;11.83;;;10.50;68.70;;;;;;5086370;28;20509;-63
2023/04/20 09:05:08;;;;;;;15.57;11.10;;;10.60;68.60;;;;;;5081250;28;20527;-63
2023/04/20 09:07:41;;;;;;;17.97;12.03;;;10.60;68.40;;;;;;5084258;28;20510;-63
2023/04/20 09:10:10;;;;;;;16.30;10.23;;;10.60;68.40;;;;;;5083341;28;20468;-63
2023/04/20 09:12:49;;;;;;;14.17;10.00;;;10.70;68.10;;;;;;5080856;28;20470;-63
2023/04/20 09:15:35;;;;;;;19.77;12.97;;;10.60;67.80;;;;;;5085928;28;20477;-63
2023/04/20 09:18:17;;;;;;;17.17;10.73;;;10.60;67.40;;;;;;5084520;28;20458;-64
2023/04/20 09:20:58;;;;;;;14.10;9.53;;;10.60;67.60;;;;;;5083897;28;20450;-63
2023/04/20 09:23:31;;;;;;;20.17;11.83;;;10.70;67.40;;;;;;5081153;28;20449;-63
2023/04/20 09:26:08;;;;;;;17.60;11.90;;;10.80;67.60;;;;;;5081214;28;20469;-63
2023/04/20 09:28:47;;;;;;;11.97;8.83;;;10.90;67.20;;;;;;5084497;28;20455;-63
2023/04/20 09:31:33;;;;;;;9.87;7.90;;;11.00;67.10;;;;;;5085732;28;20822;-63
2023/04/20 09:34:07;;;;;;;18.30;11.37;;;11.10;67.00;;;;;;5085498;28;20451;-63
2023/04/20 09:36:41;;;;;;;12.63;8.47;;;11.20;67.00;;;;;;5086408;28;20517;-63
2023/04/20 09:39:16;;;;;;;12.57;7.80;;;11.30;66.90;;;;;;5080333;28;20791;-63
2023/04/20 09:41:53;;;;;;;15.83;9.00;;;11.30;66.40;;;;;;5082151;28;20993;-63
2023/04/20 09:44:33;;;;;;;15.30;8.50;;;11.40;66.00;;;;;;5081848;28;20452;-65
2023/04/20 09:47:21;;;;;;;11.87;8.63;;;11.50;66.00;;;;;;5084985;28;20449;-63
2023/04/20 09:49:54;;;;;;;14.30;8.63;;;11.50;65.70;;;;;;5081770;28;20442;-63
2023/04/20 09:52:36;;;;;;;12.10;8.40;;;11.60;65.30;;;;;;5080568;28;21019;-64
2023/04/20 09:55:12;;;;;;;15.10;9.27;;;11.50;65.30;;;;;;5082089;28;20455;-63
2023/04/20 09:57:45;;;;;;;12.77;8.50;;;11.60;65.10;;;;;;5080982;28;20770;-63
2023/04/20 10:00:18;;;;;;;11.73;8.13;;;11.50;65.00;;;;;;5082575;28;20506;-64
2023/04/20 10:02:55;;;;;;;12.20;8.83;;;11.50;64.90;;;;;;5087240;28;20605;-63
2023/04/20 10:05:38;;;;;;;15.97;10.07;;;11.50;64.80;;;;;;5083330;28;20452;-63
2023/04/20 10:08:19;;;;;;;11.70;9.00;;;11.50;64.90;;;;;;5080705;28;20466;-63
2023/04/20 10:10:54;;;;;;;13.23;8.87;;;11.50;64.80;;;;;;5079477;28;20937;-63
2023/04/20 10:13:36;;;;;;;12.07;8.50;;;11.50;64.80;;;;;;5076528;28;20491;-63
2023/04/20 10:16:20;;;;;;;13.57;9.50;;;11.60;64.60;;;;;;5083092;28;20460;-63
2023/04/20 10:19:13;;;;;;;13.30;9.13;;;11.60;64.70;;;;;;5078276;28;20452;-63
2023/04/20 10:21:51;;;;;;;14.20;9.40;;;11.60;64.60;;;;;;5081762;28;20777;-64
2023/04/20 10:24:34;;;;;;;12.23;9.53;;;11.60;64.70;;;;;;5081626;28;20530;-63
2023/04/20 10:27:20;;;;;;;10.73;7.67;;;11.60;64.40;;;;;;5084806;28;20469;-64
2023/04/20 10:29:57;;;;;;;12.63;9.03;;;11.70;64.40;;;;;;5081534;28;20544;-64
2023/04/20 10:32:28;;;;;;;15.43;9.20;;;11.70;64.40;;;;;;5086952;28;20849;-63
2023/04/20 10:35:18;;;;;;;18.23;8.60;;;11.70;64.20;;;;;;5067936;28;20461;-63
2023/04/20 10:37:53;;;;;;;18.63;8.93;;;11.70;64.20;;;;;;5082862;28;20543;-63
2023/04/20 10:40:26;;;;;;;13.67;9.33;;;11.70;64.20;;;;;;5081691;28;20507;-64
2023/04/20 10:43:03;;;;;;;13.20;8.43;;;11.70;64.20;;;;;;5080515;28;20454;-63
2023/04/20 10:45:39;;;;;;;14.80;9.50;;;11.70;64.00;;;;;;5080207;28;20454;-64
2023/04/20 10:48:32;;;;;;;13.60;9.40;;;11.80;63.90;;;;;;5082934;28;20448;-64
2023/04/20 10:51:15;;;;;;;12.63;8.20;;;11.80;64.00;;;;;;5077911;28;20483;-64
2023/04/20 10:53:44;;;;;;;14.53;8.80;;;11.80;64.00;;;;;;5082049;28;20455;-63
2023/04/20 10:56:22;;;;;;;12.83;8.13;;;11.80;64.00;;;;;;5079646;28;20494;-64
2023/04/20 10:58:54;;;;;;;11.43;8.67;;;11.90;64.00;;;;;;5080416;28;20485;-64
2023/04/20 11:01:25;;;;;;;14.10;8.57;;;11.90;63.90;;;;;;5080755;28;20478;-64
2023/04/20 11:04:03;;;;;;;10.67;7.73;;;12.00;63.70;;;;;;5085288;28;20455;-64
2023/04/20 11:06:39;;;;;;;15.40;7.77;;;12.00;63.40;;;;;;5081158;28;20542;-64
2023/04/20 11:09:21;;;;;;;11.53;7.67;;;12.00;63.00;;;;;;5082025;28;20458;-63
2023/04/20 11:12:02;;;;;;;10.67;7.70;;;12.00;63.00;;;;;;5074952;28;20483;-63
2023/04/20 11:14:53;;;;;;;13.77;8.50;;;12.00;63.00;;;;;;5078593;28;20455;-63
2023/04/20 11:17:39;;;;;;;10.83;7.67;;;12.00;63.00;;;;;;5082103;28;20509;-63
2023/04/20 11:20:20;;;;;;;12.10;8.43;;;12.00;63.00;;;;;;5081970;28;20446;-63
2023/04/20 11:23:00;;;;;;;10.63;7.20;;;12.00;63.00;;;;;;5081764;28;20944;-63
2023/04/20 11:25:40;;;;;;;10.90;7.00;;;12.00;62.80;;;;;;5078351;28;21072;-63
2023/04/20 11:28:15;;;;;;;10.70;6.70;;;12.10;62.60;;;;;;5077977;28;20462;-63
2023/04/20 11:30:55;;;;;;;10.37;7.00;;;12.10;62.10;;;;;;5081356;28;20588;-64
2023/04/20 11:33:28;;;;;;;11.20;7.20;;;12.10;62.10;;;;;;5081037;28;20892;-63
2023/04/20 11:36:13;;;;;;;10.33;6.83;;;12.10;62.00;;;;;;5082911;28;20451;-63
2023/04/20 11:38:54;;;;;;;11.10;7.13;;;12.10;61.80;;;;;;5079792;28;20496;-64
2023/04/20 11:44:14;;;;;;;10.20;7.00;;;12.10;61.70;;;;;;5078183;28;20454;-63
2023/04/20 11:46:45;;;;;;;10.93;6.53;;;12.10;61.50;;;;;;5081339;28;20925;-64
2023/04/20 11:49:23;;;;;;;11.93;5.37;;;12.10;61.20;;;;;;5076394;28;20463;-63
2023/04/20 11:51:54;;;;;;;7.70;5.00;;;12.00;60.70;;;;;;5077198;28;20611;-63
2023/04/20 11:54:40;;;;;;;8.30;5.50;;;11.90;60.40;;;;;;5081773;28;20460;-64
2023/04/20 11:57:20;;;;;;;9.70;5.63;;;11.90;60.00;;;;;;5078329;28;20490;-63
2023/04/20 11:59:54;;;;;;;7.17;4.87;;;11.90;60.10;;;;;;5076512;28;20517;-63
2023/04/20 12:02:23;;;;;;;12.30;6.63;;;12.00;60.00;;;;;;5083763;28;20466;-63
2023/04/20 12:05:09;;;;;;;8.63;5.33;;;12.00;59.90;;;;;;5080640;28;20944;-63
2023/04/20 12:07:42;;;;;;;9.30;5.70;;;12.00;59.60;;;;;;5080492;28;20452;-65
2023/04/20 12:10:19;;;;;;;9.17;5.93;;;12.00;59.50;;;;;;5078768;28;20451;-62
2023/04/20 12:12:51;;;;;;;9.93;6.43;;;12.10;59.40;;;;;;5077048;28;20467;-65
2023/04/20 12:15:23;;;;;;;12.40;6.20;;;12.00;59.20;;;;;;5078202;28;20963;-63
2023/04/20 12:17:56;;;;;;;10.00;6.30;;;12.10;59.20;;;;;;5074514;28;20497;-63
2023/04/20 12:20:30;;;;;;;8.93;5.10;;;12.10;59.10;;;;;;5081833;28;20469;-63
2023/04/20 12:23:09;;;;;;;7.87;4.77;;;12.00;58.90;;;;;;5077630;28;20444;-63
2023/04/20 12:25:48;;;;;;;10.60;6.20;;;12.00;58.90;;;;;;5077578;28;20927;-63
2023/04/20 12:28:19;;;;;;;8.47;5.10;;;12.00;58.70;;;;;;5080810;28;20468;-63
2023/04/20 12:30:52;;;;;;;7.90;5.03;;;12.00;58.80;;;;;;5077732;28;20850;-63
2023/04/20 12:33:23;;;;;;;7.33;4.53;;;12.10;58.70;;;;;;5080355;28;20825;-63
2023/04/20 12:36:04;;;;;;;6.63;4.60;;;12.10;58.30;;;;;;5077845;28;20792;-65
2023/04/20 12:38:42;;;;;;;8.10;5.20;;;12.10;58.40;;;;;;5079482;28;20473;-63
2023/04/20 12:41:27;;;;;;;9.40;6.27;;;12.10;58.60;;;;;;5076552;28;20468;-65
2023/04/20 12:44:00;;;;;;;8.97;6.30;;;12.20;58.60;;;;;;5077848;28;20462;-64
2023/04/20 12:46:38;;;;;;;9.80;5.83;;;12.30;58.60;;;;;;5082923;28;20466;-63
2023/04/20 12:49:12;;;;;;;9.77;6.50;;;12.30;58.40;;;;;;5078294;28;20536;-63
2023/04/20 12:51:41;;;;;;;8.13;5.40;;;12.30;58.30;;;;;;5079143;28;20482;-63
2023/04/20 12:54:13;;;;;;;11.57;5.80;;;12.30;58.20;;;;;;5079685;28;20526;-64
2023/04/20 12:56:48;;;;;;;13.43;6.20;;;12.30;58.20;;;;;;5076044;28;20769;-63
2023/04/20 12:59:21;;;;;;;8.70;5.50;;;12.30;58.10;;;;;;5083625;28;20461;-63
2023/04/20 13:01:58;;;;;;;9.50;5.33;;;12.40;58.20;;;;;;5063699;28;21122;-63
2023/04/20 13:04:35;;;;;;;7.50;4.50;;;12.30;58.20;;;;;;5083170;28;20517;-64
2023/04/20 13:07:09;;;;;;;8.90;5.67;;;12.30;58.00;;;;;;5080572;28;20959;-64
2023/04/20 13:09:41;;;;;;;7.67;5.20;;;12.40;58.00;;;;;;5081590;28;20817;-63
2023/04/20 13:12:20;;;;;;;9.87;5.57;;;12.30;57.80;;;;;;5081370;28;20464;-64
2023/04/20 13:14:59;;;;;;;9.17;6.27;;;12.40;57.50;;;;;;5077538;28;20464;-64
2023/04/20 13:17:32;;;;;;;10.23;5.83;;;12.30;57.60;;;;;;5082515;28;20476;-64
2023/04/20 13:20:05;;;;;;;10.40;6.20;;;12.30;57.70;;;;;;5080046;28;20472;-65
2023/04/20 13:22:38;;;;;;;11.03;6.23;;;12.30;57.80;;;;;;5081219;28;21302;-66
2023/04/20 13:25:26;;;;;;;11.43;6.57;;;12.30;58.00;;;;;;5084910;28;20470;-63
2023/04/20 13:28:11;;;;;;;12.57;7.57;;;12.30;58.00;;;;;;5069901;28;20461;-65
2023/04/20 13:30:43;;;;;;;10.67;7.60;;;12.20;58.30;;;;;;5085337;28;20764;-63
2023/04/20 13:33:23;;;;;;;13.43;8.33;;;12.20;58.40;;;;;;5080659;28;20489;-64
2023/04/20 13:36:00;;;;;;;15.43;8.43;;;12.20;58.60;;;;;;5083339;28;20537;-63